sensor_id;sensor_type;location;lat;lon;timestamp;P1;durP1;ratioP1;P2;durP2;ratioP2
73515;SDS011;61763;51.416;5.442;2023-07-29T00:01:47;9.60;;;4.70;;
73515;SDS011;61763;51.416;5.442;2023-07-29T00:04:14;10.93;;;5.82;;
73515;SDS011;61763;51.416;5.442;2023-07-29T00:06:39;7.50;;;4.53;;
73515;SDS011;61763;51.416;5.442;2023-07-29T00:09:05;10.38;;;5.38;;
73515;SDS011;61763;51.416;5.442;2023-07-29T00:11:30;9.35;;;5.15;;
73515;SDS011;61763;51.416;5.442;2023-07-29T00:13:58;7.57;;;3.53;;
73515;SDS011;61763;51.416;5.442;2023-07-29T00:16:24;9.32;;;5.95;;
73515;SDS011;61763;51.416;5.442;2023-07-29T00:18:49;10.60;;;5.10;;
73515;SDS011;61763;51.416;5.442;2023-07-29T00:21:15;8.77;;;5.82;;
73515;SDS011;61763;51.416;5.442;2023-07-29T00:23:40;9.82;;;7.07;;
73515;SDS011;61763;51.416;5.442;2023-07-29T00:26:06;8.30;;;4.35;;
73515;SDS011;61763;51.416;5.442;2023-07-29T00:28:31;8.15;;;5.35;;
73515;SDS011;61763;51.416;5.442;2023-07-29T00:30:57;8.80;;;4.35;;
73515;SDS011;61763;51.416;5.442;2023-07-29T00:33:22;11.68;;;4.95;;
73515;SDS011;61763;51.416;5.442;2023-07-29T00:35:47;7.53;;;4.93;;
73515;SDS011;61763;51.416;5.442;2023-07-29T00:38:13;7.65;;;5.13;;
73515;SDS011;61763;51.416;5.442;2023-07-29T00:40:38;7.82;;;5.72;;
73515;SDS011;61763;51.416;5.442;2023-07-29T00:43:04;9.82;;;6.60;;
73515;SDS011;61763;51.416;5.442;2023-07-29T00:45:29;8.60;;;4.57;;
73515;SDS011;61763;51.416;5.442;2023-07-29T00:47:56;7.55;;;3.72;;
73515;SDS011;61763;51.416;5.442;2023-07-29T00:50:22;8.25;;;4.95;;
73515;SDS011;61763;51.416;5.442;2023-07-29T00:52:48;8.15;;;4.93;;
73515;SDS011;61763;51.416;5.442;2023-07-29T00:55:14;9.57;;;5.15;;
73515;SDS011;61763;51.416;5.442;2023-07-29T00:57:39;8.80;;;4.97;;
73515;SDS011;61763;51.416;5.442;2023-07-29T01:02:33;8.13;;;4.22;;
73515;SDS011;61763;51.416;5.442;2023-07-29T01:05:00;9.45;;;5.25;;
73515;SDS011;61763;51.416;5.442;2023-07-29T01:12:43;10.63;;;6.78;;
73515;SDS011;61763;51.416;5.442;2023-07-29T01:15:31;8.07;;;4.35;;
73515;SDS011;61763;51.416;5.442;2023-07-29T01:18:05;6.80;;;4.07;;
73515;SDS011;61763;51.416;5.442;2023-07-29T01:20:34;8.15;;;5.60;;
73515;SDS011;61763;51.416;5.442;2023-07-29T01:23:03;6.38;;;3.72;;
73515;SDS011;61763;51.416;5.442;2023-07-29T01:25:29;7.68;;;4.05;;
73515;SDS011;61763;51.416;5.442;2023-07-29T01:27:54;5.90;;;3.25;;
73515;SDS011;61763;51.416;5.442;2023-07-29T01:30:20;5.78;;;3.03;;
73515;SDS011;61763;51.416;5.442;2023-07-29T01:32:59;5.45;;;4.05;;
73515;SDS011;61763;51.416;5.442;2023-07-29T01:38:19;4.85;;;2.45;;
73515;SDS011;61763;51.416;5.442;2023-07-29T01:40:49;5.75;;;3.88;;
73515;SDS011;61763;51.416;5.442;2023-07-29T01:45:43;4.95;;;1.90;;
73515;SDS011;61763;51.416;5.442;2023-07-29T01:48:11;5.40;;;3.75;;
73515;SDS011;61763;51.416;5.442;2023-07-29T01:50:36;7.43;;;3.80;;
73515;SDS011;61763;51.416;5.442;2023-07-29T01:53:02;10.10;;;5.10;;
73515;SDS011;61763;51.416;5.442;2023-07-29T01:55:29;6.72;;;3.22;;
73515;SDS011;61763;51.416;5.442;2023-07-29T02:00:20;5.32;;;3.00;;
73515;SDS011;61763;51.416;5.442;2023-07-29T02:02:46;7.70;;;4.15;;
73515;SDS011;61763;51.416;5.442;2023-07-29T02:05:11;7.80;;;3.55;;
73515;SDS011;61763;51.416;5.442;2023-07-29T02:07:37;7.53;;;4.50;;
73515;SDS011;61763;51.416;5.442;2023-07-29T02:10:02;8.82;;;4.55;;
73515;SDS011;61763;51.416;5.442;2023-07-29T02:12:28;6.72;;;3.35;;
73515;SDS011;61763;51.416;5.442;2023-07-29T02:14:53;7.60;;;5.20;;
73515;SDS011;61763;51.416;5.442;2023-07-29T02:17:19;6.75;;;4.45;;
73515;SDS011;61763;51.416;5.442;2023-07-29T02:19:46;6.85;;;4.78;;
73515;SDS011;61763;51.416;5.442;2023-07-29T02:22:15;8.98;;;5.65;;
73515;SDS011;61763;51.416;5.442;2023-07-29T02:24:41;8.25;;;4.45;;
73515;SDS011;61763;51.416;5.442;2023-07-29T02:27:07;6.85;;;3.65;;
73515;SDS011;61763;51.416;5.442;2023-07-29T02:29:32;7.30;;;3.58;;
73515;SDS011;61763;51.416;5.442;2023-07-29T02:31:58;9.10;;;3.88;;
73515;SDS011;61763;51.416;5.442;2023-07-29T02:34:24;8.88;;;5.03;;
73515;SDS011;61763;51.416;5.442;2023-07-29T02:36:49;11.27;;;4.30;;
73515;SDS011;61763;51.416;5.442;2023-07-29T02:39:15;7.05;;;3.30;;
73515;SDS011;61763;51.416;5.442;2023-07-29T02:41:40;9.75;;;5.43;;
73515;SDS011;61763;51.416;5.442;2023-07-29T02:44:05;6.90;;;3.15;;
73515;SDS011;61763;51.416;5.442;2023-07-29T02:46:31;6.72;;;3.30;;
73515;SDS011;61763;51.416;5.442;2023-07-29T02:48:57;7.43;;;4.05;;
73515;SDS011;61763;51.416;5.442;2023-07-29T02:51:22;8.48;;;3.80;;
73515;SDS011;61763;51.416;5.442;2023-07-29T02:53:47;6.40;;;3.17;;
73515;SDS011;61763;51.416;5.442;2023-07-29T02:56:13;7.10;;;4.05;;
73515;SDS011;61763;51.416;5.442;2023-07-29T02:58:38;10.25;;;4.68;;
73515;SDS011;61763;51.416;5.442;2023-07-29T03:01:04;6.38;;;2.22;;
73515;SDS011;61763;51.416;5.442;2023-07-29T03:03:31;6.40;;;2.70;;
73515;SDS011;61763;51.416;5.442;2023-07-29T03:06:04;5.63;;;2.40;;
73515;SDS011;61763;51.416;5.442;2023-07-29T03:08:31;6.97;;;3.83;;
73515;SDS011;61763;51.416;5.442;2023-07-29T03:10:57;7.13;;;3.28;;
73515;SDS011;61763;51.416;5.442;2023-07-29T03:13:23;5.57;;;3.05;;
73515;SDS011;61763;51.416;5.442;2023-07-29T03:15:49;4.50;;;2.00;;
73515;SDS011;61763;51.416;5.442;2023-07-29T03:18:14;6.45;;;3.15;;
73515;SDS011;61763;51.416;5.442;2023-07-29T03:20:40;4.97;;;2.33;;
73515;SDS011;61763;51.416;5.442;2023-07-29T03:23:06;4.95;;;2.30;;
73515;SDS011;61763;51.416;5.442;2023-07-29T03:25:32;6.47;;;3.55;;
73515;SDS011;61763;51.416;5.442;2023-07-29T03:27:58;5.30;;;3.50;;
73515;SDS011;61763;51.416;5.442;2023-07-29T03:30:23;5.40;;;3.97;;
73515;SDS011;61763;51.416;5.442;2023-07-29T03:32:49;5.93;;;3.28;;
73515;SDS011;61763;51.416;5.442;2023-07-29T03:35:15;5.53;;;3.25;;
73515;SDS011;61763;51.416;5.442;2023-07-29T03:37:41;5.93;;;2.42;;
73515;SDS011;61763;51.416;5.442;2023-07-29T03:40:06;6.57;;;2.55;;
73515;SDS011;61763;51.416;5.442;2023-07-29T03:42:34;6.75;;;3.50;;
73515;SDS011;61763;51.416;5.442;2023-07-29T03:44:59;8.00;;;2.53;;
73515;SDS011;61763;51.416;5.442;2023-07-29T03:47:24;9.38;;;3.53;;
73515;SDS011;61763;51.416;5.442;2023-07-29T03:49:50;7.20;;;3.47;;
73515;SDS011;61763;51.416;5.442;2023-07-29T03:52:15;5.95;;;3.17;;
73515;SDS011;61763;51.416;5.442;2023-07-29T03:54:40;6.15;;;3.05;;
73515;SDS011;61763;51.416;5.442;2023-07-29T03:57:06;6.28;;;3.13;;
73515;SDS011;61763;51.416;5.442;2023-07-29T03:59:31;5.13;;;3.08;;
73515;SDS011;61763;51.416;5.442;2023-07-29T04:01:57;5.07;;;3.03;;
73515;SDS011;61763;51.416;5.442;2023-07-29T04:04:22;5.72;;;2.33;;
73515;SDS011;61763;51.416;5.442;2023-07-29T04:06:48;4.82;;;3.13;;
73515;SDS011;61763;51.416;5.442;2023-07-29T04:09:13;5.25;;;2.30;;
73515;SDS011;61763;51.416;5.442;2023-07-29T04:11:38;5.93;;;3.05;;
73515;SDS011;61763;51.416;5.442;2023-07-29T04:14:04;4.45;;;3.42;;
73515;SDS011;61763;51.416;5.442;2023-07-29T04:16:29;4.85;;;3.20;;
73515;SDS011;61763;51.416;5.442;2023-07-29T04:18:54;6.68;;;2.97;;
73515;SDS011;61763;51.416;5.442;2023-07-29T04:21:20;4.28;;;2.95;;
73515;SDS011;61763;51.416;5.442;2023-07-29T04:23:45;4.80;;;3.03;;
73515;SDS011;61763;51.416;5.442;2023-07-29T04:26:10;5.38;;;2.95;;
73515;SDS011;61763;51.416;5.442;2023-07-29T04:28:36;5.30;;;2.53;;
73515;SDS011;61763;51.416;5.442;2023-07-29T04:31:01;5.82;;;2.70;;
73515;SDS011;61763;51.416;5.442;2023-07-29T04:33:29;5.03;;;2.40;;
73515;SDS011;61763;51.416;5.442;2023-07-29T04:35:55;4.32;;;2.60;;
73515;SDS011;61763;51.416;5.442;2023-07-29T04:38:20;4.45;;;1.50;;
73515;SDS011;61763;51.416;5.442;2023-07-29T04:40:45;6.80;;;2.70;;
73515;SDS011;61763;51.416;5.442;2023-07-29T04:43:11;7.30;;;2.30;;
73515;SDS011;61763;51.416;5.442;2023-07-29T04:45:36;3.65;;;1.33;;
73515;SDS011;61763;51.416;5.442;2023-07-29T04:48:07;4.50;;;2.42;;
73515;SDS011;61763;51.416;5.442;2023-07-29T04:50:33;4.53;;;2.50;;
73515;SDS011;61763;51.416;5.442;2023-07-29T04:52:58;3.22;;;1.25;;
73515;SDS011;61763;51.416;5.442;2023-07-29T04:55:23;6.38;;;2.38;;
73515;SDS011;61763;51.416;5.442;2023-07-29T04:57:49;4.35;;;2.15;;
73515;SDS011;61763;51.416;5.442;2023-07-29T05:00:14;4.18;;;2.30;;
73515;SDS011;61763;51.416;5.442;2023-07-29T05:02:41;5.22;;;2.05;;
73515;SDS011;61763;51.416;5.442;2023-07-29T05:05:06;6.20;;;2.30;;
73515;SDS011;61763;51.416;5.442;2023-07-29T05:07:32;5.65;;;0.98;;
73515;SDS011;61763;51.416;5.442;2023-07-29T05:09:58;3.40;;;1.25;;
73515;SDS011;61763;51.416;5.442;2023-07-29T05:12:24;3.40;;;2.33;;
73515;SDS011;61763;51.416;5.442;2023-07-29T05:14:49;4.65;;;2.08;;
73515;SDS011;61763;51.416;5.442;2023-07-29T05:17:15;3.83;;;1.85;;
73515;SDS011;61763;51.416;5.442;2023-07-29T05:19:40;5.18;;;2.47;;
73515;SDS011;61763;51.416;5.442;2023-07-29T05:22:05;4.22;;;1.58;;
73515;SDS011;61763;51.416;5.442;2023-07-29T05:24:31;3.35;;;1.77;;
73515;SDS011;61763;51.416;5.442;2023-07-29T05:26:56;2.80;;;1.63;;
73515;SDS011;61763;51.416;5.442;2023-07-29T05:29:22;2.47;;;1.58;;
73515;SDS011;61763;51.416;5.442;2023-07-29T05:31:47;2.70;;;0.80;;
73515;SDS011;61763;51.416;5.442;2023-07-29T05:34:12;2.78;;;0.90;;
73515;SDS011;61763;51.416;5.442;2023-07-29T05:36:38;2.57;;;1.27;;
73515;SDS011;61763;51.416;5.442;2023-07-29T05:39:04;3.92;;;1.80;;
73515;SDS011;61763;51.416;5.442;2023-07-29T05:41:29;3.92;;;0.98;;
73515;SDS011;61763;51.416;5.442;2023-07-29T05:43:55;3.28;;;2.33;;
73515;SDS011;61763;51.416;5.442;2023-07-29T05:46:20;3.15;;;0.80;;
73515;SDS011;61763;51.416;5.442;2023-07-29T05:48:45;3.38;;;0.98;;
73515;SDS011;61763;51.416;5.442;2023-07-29T05:51:11;3.78;;;1.85;;
73515;SDS011;61763;51.416;5.442;2023-07-29T05:53:37;3.75;;;1.10;;
73515;SDS011;61763;51.416;5.442;2023-07-29T05:56:02;4.13;;;1.02;;
73515;SDS011;61763;51.416;5.442;2023-07-29T05:58:28;4.30;;;2.40;;
73515;SDS011;61763;51.416;5.442;2023-07-29T06:00:56;2.42;;;0.80;;
73515;SDS011;61763;51.416;5.442;2023-07-29T06:03:21;4.25;;;1.25;;
73515;SDS011;61763;51.416;5.442;2023-07-29T06:05:48;4.90;;;1.90;;
73515;SDS011;61763;51.416;5.442;2023-07-29T06:10:39;3.87;;;1.60;;
73515;SDS011;61763;51.416;5.442;2023-07-29T06:13:05;3.10;;;1.00;;
73515;SDS011;61763;51.416;5.442;2023-07-29T06:15:31;3.75;;;0.93;;
73515;SDS011;61763;51.416;5.442;2023-07-29T06:17:56;3.47;;;1.23;;
73515;SDS011;61763;51.416;5.442;2023-07-29T06:20:21;3.20;;;1.85;;
73515;SDS011;61763;51.416;5.442;2023-07-29T06:22:47;2.72;;;1.38;;
73515;SDS011;61763;51.416;5.442;2023-07-29T06:25:12;3.45;;;1.35;;
73515;SDS011;61763;51.416;5.442;2023-07-29T06:27:37;1.75;;;0.63;;
73515;SDS011;61763;51.416;5.442;2023-07-29T06:30:03;1.88;;;0.60;;
73515;SDS011;61763;51.416;5.442;2023-07-29T06:32:28;2.08;;;0.73;;
73515;SDS011;61763;51.416;5.442;2023-07-29T06:34:54;4.47;;;0.90;;
73515;SDS011;61763;51.416;5.442;2023-07-29T06:37:19;3.67;;;1.27;;
73515;SDS011;61763;51.416;5.442;2023-07-29T06:39:45;2.97;;;1.02;;
73515;SDS011;61763;51.416;5.442;2023-07-29T06:42:10;2.42;;;0.52;;
73515;SDS011;61763;51.416;5.442;2023-07-29T06:44:36;3.50;;;1.77;;
73515;SDS011;61763;51.416;5.442;2023-07-29T06:47:01;2.78;;;0.75;;
73515;SDS011;61763;51.416;5.442;2023-07-29T06:49:26;3.60;;;1.48;;
73515;SDS011;61763;51.416;5.442;2023-07-29T06:51:52;2.88;;;1.55;;
73515;SDS011;61763;51.416;5.442;2023-07-29T06:54:17;5.03;;;1.15;;
73515;SDS011;61763;51.416;5.442;2023-07-29T06:56:42;3.33;;;0.90;;
73515;SDS011;61763;51.416;5.442;2023-07-29T06:59:08;3.30;;;0.82;;
73515;SDS011;61763;51.416;5.442;2023-07-29T07:01:33;3.53;;;2.05;;
73515;SDS011;61763;51.416;5.442;2023-07-29T07:03:59;2.97;;;1.65;;
73515;SDS011;61763;51.416;5.442;2023-07-29T07:06:24;2.83;;;0.63;;
73515;SDS011;61763;51.416;5.442;2023-07-29T07:08:50;2.97;;;0.85;;
73515;SDS011;61763;51.416;5.442;2023-07-29T07:11:16;3.55;;;1.45;;
73515;SDS011;61763;51.416;5.442;2023-07-29T07:13:42;2.08;;;1.25;;
73515;SDS011;61763;51.416;5.442;2023-07-29T07:16:07;2.13;;;1.23;;
73515;SDS011;61763;51.416;5.442;2023-07-29T07:18:32;3.35;;;1.63;;
73515;SDS011;61763;51.416;5.442;2023-07-29T07:20:58;2.20;;;0.52;;
73515;SDS011;61763;51.416;5.442;2023-07-29T07:23:23;3.85;;;1.60;;
73515;SDS011;61763;51.416;5.442;2023-07-29T07:25:48;3.50;;;1.33;;
73515;SDS011;61763;51.416;5.442;2023-07-29T07:28:16;2.03;;;0.60;;
73515;SDS011;61763;51.416;5.442;2023-07-29T07:30:41;2.15;;;1.60;;
73515;SDS011;61763;51.416;5.442;2023-07-29T07:33:07;2.13;;;1.38;;
73515;SDS011;61763;51.416;5.442;2023-07-29T07:35:33;2.95;;;1.63;;
73515;SDS011;61763;51.416;5.442;2023-07-29T07:37:58;2.60;;;1.20;;
73515;SDS011;61763;51.416;5.442;2023-07-29T07:40:26;2.03;;;0.63;;
73515;SDS011;61763;51.416;5.442;2023-07-29T07:42:52;2.67;;;1.10;;
73515;SDS011;61763;51.416;5.442;2023-07-29T07:45:17;2.00;;;0.50;;
73515;SDS011;61763;51.416;5.442;2023-07-29T07:47:43;2.22;;;0.77;;
73515;SDS011;61763;51.416;5.442;2023-07-29T07:50:08;3.05;;;1.80;;
73515;SDS011;61763;51.416;5.442;2023-07-29T07:52:34;2.97;;;1.55;;
73515;SDS011;61763;51.416;5.442;2023-07-29T07:54:59;2.42;;;1.55;;
73515;SDS011;61763;51.416;5.442;2023-07-29T07:57:25;2.60;;;1.70;;
73515;SDS011;61763;51.416;5.442;2023-07-29T07:59:50;2.75;;;1.42;;
73515;SDS011;61763;51.416;5.442;2023-07-29T08:02:17;2.10;;;1.13;;
73515;SDS011;61763;51.416;5.442;2023-07-29T08:04:43;3.85;;;1.23;;
73515;SDS011;61763;51.416;5.442;2023-07-29T08:07:08;1.30;;;0.40;;
73515;SDS011;61763;51.416;5.442;2023-07-29T08:09:34;2.55;;;1.58;;
73515;SDS011;61763;51.416;5.442;2023-07-29T08:11:59;2.70;;;2.08;;
73515;SDS011;61763;51.416;5.442;2023-07-29T08:14:24;2.70;;;1.45;;
73515;SDS011;61763;51.416;5.442;2023-07-29T08:16:51;2.50;;;1.60;;
73515;SDS011;61763;51.416;5.442;2023-07-29T08:19:16;1.98;;;1.15;;
73515;SDS011;61763;51.416;5.442;2023-07-29T08:21:42;3.22;;;1.67;;
73515;SDS011;61763;51.416;5.442;2023-07-29T08:24:07;2.22;;;1.45;;
73515;SDS011;61763;51.416;5.442;2023-07-29T08:26:33;1.73;;;0.52;;
73515;SDS011;61763;51.416;5.442;2023-07-29T08:28:58;1.70;;;1.35;;
73515;SDS011;61763;51.416;5.442;2023-07-29T08:31:23;2.08;;;1.00;;
73515;SDS011;61763;51.416;5.442;2023-07-29T08:33:49;2.17;;;1.73;;
73515;SDS011;61763;51.416;5.442;2023-07-29T08:36:14;1.63;;;0.45;;
73515;SDS011;61763;51.416;5.442;2023-07-29T08:38:40;2.83;;;1.55;;
73515;SDS011;61763;51.416;5.442;2023-07-29T08:41:16;3.67;;;1.63;;
73515;SDS011;61763;51.416;5.442;2023-07-29T08:46:35;2.03;;;1.42;;
73515;SDS011;61763;51.416;5.442;2023-07-29T08:49:01;1.70;;;0.47;;
73515;SDS011;61763;51.416;5.442;2023-07-29T08:51:27;1.85;;;1.50;;
73515;SDS011;61763;51.416;5.442;2023-07-29T08:53:54;2.75;;;1.88;;
73515;SDS011;61763;51.416;5.442;2023-07-29T08:56:20;2.38;;;1.40;;
73515;SDS011;61763;51.416;5.442;2023-07-29T08:58:46;4.10;;;1.70;;
73515;SDS011;61763;51.416;5.442;2023-07-29T09:01:12;1.33;;;0.32;;
73515;SDS011;61763;51.416;5.442;2023-07-29T09:03:38;2.70;;;0.73;;
73515;SDS011;61763;51.416;5.442;2023-07-29T09:06:04;2.80;;;0.43;;
73515;SDS011;61763;51.416;5.442;2023-07-29T09:08:31;3.67;;;1.85;;
73515;SDS011;61763;51.416;5.442;2023-07-29T09:10:57;2.38;;;1.70;;
73515;SDS011;61763;51.416;5.442;2023-07-29T09:13:22;2.90;;;1.50;;
73515;SDS011;61763;51.416;5.442;2023-07-29T09:15:48;2.67;;;1.38;;
73515;SDS011;61763;51.416;5.442;2023-07-29T09:18:17;2.00;;;0.32;;
73515;SDS011;61763;51.416;5.442;2023-07-29T09:20:45;3.72;;;0.57;;
73515;SDS011;61763;51.416;5.442;2023-07-29T09:23:12;3.05;;;1.35;;
73515;SDS011;61763;51.416;5.442;2023-07-29T09:25:38;1.35;;;0.28;;
73515;SDS011;61763;51.416;5.442;2023-07-29T09:28:11;3.10;;;1.63;;
73515;SDS011;61763;51.416;5.442;2023-07-29T09:30:38;2.78;;;1.33;;
73515;SDS011;61763;51.416;5.442;2023-07-29T09:33:05;2.42;;;0.73;;
73515;SDS011;61763;51.416;5.442;2023-07-29T09:35:32;2.55;;;2.03;;
73515;SDS011;61763;51.416;5.442;2023-07-29T09:37:59;1.88;;;1.05;;
73515;SDS011;61763;51.416;5.442;2023-07-29T09:40:24;1.70;;;0.40;;
73515;SDS011;61763;51.416;5.442;2023-07-29T09:42:53;2.13;;;1.73;;
73515;SDS011;61763;51.416;5.442;2023-07-29T09:45:26;1.17;;;0.40;;
73515;SDS011;61763;51.416;5.442;2023-07-29T09:47:52;2.30;;;0.47;;
73515;SDS011;61763;51.416;5.442;2023-07-29T09:50:18;3.72;;;2.17;;
73515;SDS011;61763;51.416;5.442;2023-07-29T09:52:47;2.53;;;0.52;;
73515;SDS011;61763;51.416;5.442;2023-07-29T09:55:13;1.92;;;1.08;;
73515;SDS011;61763;51.416;5.442;2023-07-29T09:57:43;2.58;;;1.75;;
73515;SDS011;61763;51.416;5.442;2023-07-29T10:00:10;1.33;;;0.65;;
73515;SDS011;61763;51.416;5.442;2023-07-29T10:02:40;3.13;;;1.60;;
73515;SDS011;61763;51.416;5.442;2023-07-29T10:05:07;2.08;;;1.00;;
73515;SDS011;61763;51.416;5.442;2023-07-29T10:07:36;2.70;;;0.60;;
73515;SDS011;61763;51.416;5.442;2023-07-29T10:10:03;2.55;;;1.58;;
73515;SDS011;61763;51.416;5.442;2023-07-29T10:12:33;1.77;;;1.10;;
73515;SDS011;61763;51.416;5.442;2023-07-29T10:15:01;1.67;;;0.50;;
73515;SDS011;61763;51.416;5.442;2023-07-29T10:17:29;2.05;;;1.48;;
73515;SDS011;61763;51.416;5.442;2023-07-29T10:19:56;2.10;;;0.75;;
73515;SDS011;61763;51.416;5.442;2023-07-29T10:22:42;2.50;;;1.67;;
73515;SDS011;61763;51.416;5.442;2023-07-29T10:25:10;2.00;;;0.40;;
73515;SDS011;61763;51.416;5.442;2023-07-29T10:27:42;1.73;;;0.80;;
73515;SDS011;61763;51.416;5.442;2023-07-29T10:30:12;2.50;;;1.60;;
73515;SDS011;61763;51.416;5.442;2023-07-29T10:32:38;2.00;;;0.70;;
73515;SDS011;61763;51.416;5.442;2023-07-29T10:35:08;3.03;;;2.35;;
73515;SDS011;61763;51.416;5.442;2023-07-29T10:37:34;1.85;;;0.75;;
73515;SDS011;61763;51.416;5.442;2023-07-29T10:40:00;2.60;;;0.70;;
73515;SDS011;61763;51.416;5.442;2023-07-29T10:42:25;2.42;;;1.67;;
73515;SDS011;61763;51.416;5.442;2023-07-29T10:44:54;2.80;;;1.83;;
73515;SDS011;61763;51.416;5.442;2023-07-29T10:49:53;2.13;;;1.25;;
73515;SDS011;61763;51.416;5.442;2023-07-29T10:55:00;2.10;;;0.90;;
73515;SDS011;61763;51.416;5.442;2023-07-29T10:57:39;2.75;;;0.82;;
73515;SDS011;61763;51.416;5.442;2023-07-29T11:00:10;1.50;;;0.50;;
73515;SDS011;61763;51.416;5.442;2023-07-29T11:02:36;2.60;;;0.70;;
73515;SDS011;61763;51.416;5.442;2023-07-29T11:05:06;1.77;;;1.00;;
73515;SDS011;61763;51.416;5.442;2023-07-29T11:07:47;3.83;;;2.03;;
73515;SDS011;61763;51.416;5.442;2023-07-29T11:10:13;1.75;;;1.38;;
73515;SDS011;61763;51.416;5.442;2023-07-29T11:12:43;2.40;;;1.73;;
73515;SDS011;61763;51.416;5.442;2023-07-29T11:15:20;1.55;;;0.77;;
73515;SDS011;61763;51.416;5.442;2023-07-29T11:20:18;2.55;;;1.77;;
73515;SDS011;61763;51.416;5.442;2023-07-29T11:22:45;2.78;;;2.25;;
73515;SDS011;61763;51.416;5.442;2023-07-29T11:25:12;2.95;;;0.85;;
73515;SDS011;61763;51.416;5.442;2023-07-29T11:27:39;5.15;;;2.05;;
73515;SDS011;61763;51.416;5.442;2023-07-29T11:30:06;6.75;;;1.88;;
73515;SDS011;61763;51.416;5.442;2023-07-29T11:32:36;9.40;;;3.10;;
73515;SDS011;61763;51.416;5.442;2023-07-29T11:35:06;5.78;;;3.00;;
73515;SDS011;61763;51.416;5.442;2023-07-29T11:37:33;4.18;;;2.85;;
73515;SDS011;61763;51.416;5.442;2023-07-29T11:39:59;3.67;;;2.05;;
73515;SDS011;61763;51.416;5.442;2023-07-29T11:42:26;3.35;;;2.13;;
73515;SDS011;61763;51.416;5.442;2023-07-29T11:44:52;2.67;;;2.00;;
73515;SDS011;61763;51.416;5.442;2023-07-29T11:47:17;2.97;;;1.55;;
73515;SDS011;61763;51.416;5.442;2023-07-29T11:49:42;3.30;;;2.30;;
73515;SDS011;61763;51.416;5.442;2023-07-29T11:52:08;2.60;;;2.13;;
73515;SDS011;61763;51.416;5.442;2023-07-29T11:54:38;3.80;;;2.53;;
73515;SDS011;61763;51.416;5.442;2023-07-29T11:57:10;3.13;;;2.33;;
73515;SDS011;61763;51.416;5.442;2023-07-29T11:59:37;2.70;;;2.10;;
73515;SDS011;61763;51.416;5.442;2023-07-29T12:02:08;3.30;;;2.25;;
73515;SDS011;61763;51.416;5.442;2023-07-29T12:04:36;3.90;;;2.15;;
73515;SDS011;61763;51.416;5.442;2023-07-29T12:07:03;5.13;;;1.00;;
73515;SDS011;61763;51.416;5.442;2023-07-29T12:09:29;3.60;;;1.42;;
73515;SDS011;61763;51.416;5.442;2023-07-29T12:11:56;3.58;;;2.53;;
73515;SDS011;61763;51.416;5.442;2023-07-29T12:14:25;3.33;;;0.98;;
73515;SDS011;61763;51.416;5.442;2023-07-29T12:16:52;3.45;;;2.35;;
73515;SDS011;61763;51.416;5.442;2023-07-29T12:19:18;3.63;;;2.33;;
73515;SDS011;61763;51.416;5.442;2023-07-29T12:21:44;4.18;;;2.55;;
73515;SDS011;61763;51.416;5.442;2023-07-29T12:24:09;3.22;;;1.63;;
73515;SDS011;61763;51.416;5.442;2023-07-29T12:26:37;5.53;;;1.67;;
73515;SDS011;61763;51.416;5.442;2023-07-29T12:29:12;4.32;;;2.50;;
73515;SDS011;61763;51.416;5.442;2023-07-29T12:31:39;4.18;;;1.98;;
73515;SDS011;61763;51.416;5.442;2023-07-29T12:34:04;3.33;;;1.60;;
73515;SDS011;61763;51.416;5.442;2023-07-29T12:36:43;2.75;;;0.77;;
73515;SDS011;61763;51.416;5.442;2023-07-29T12:39:31;2.55;;;0.40;;
73515;SDS011;61763;51.416;5.442;2023-07-29T12:41:57;4.95;;;1.48;;
73515;SDS011;61763;51.416;5.442;2023-07-29T12:44:29;1.60;;;1.08;;
73515;SDS011;61763;51.416;5.442;2023-07-29T12:46:56;3.20;;;0.38;;
73515;SDS011;61763;51.416;5.442;2023-07-29T12:49:21;3.60;;;0.90;;
73515;SDS011;61763;51.416;5.442;2023-07-29T12:51:47;3.03;;;1.13;;
73515;SDS011;61763;51.416;5.442;2023-07-29T12:54:13;2.97;;;1.15;;
73515;SDS011;61763;51.416;5.442;2023-07-29T12:56:38;1.50;;;0.40;;
73515;SDS011;61763;51.416;5.442;2023-07-29T12:59:04;3.47;;;0.40;;
73515;SDS011;61763;51.416;5.442;2023-07-29T13:01:30;2.60;;;0.63;;
73515;SDS011;61763;51.416;5.442;2023-07-29T13:03:55;2.47;;;1.60;;
73515;SDS011;61763;51.416;5.442;2023-07-29T13:06:21;2.55;;;1.00;;
73515;SDS011;61763;51.416;5.442;2023-07-29T13:08:47;3.97;;;0.85;;
73515;SDS011;61763;51.416;5.442;2023-07-29T13:11:16;1.85;;;0.70;;
73515;SDS011;61763;51.416;5.442;2023-07-29T13:13:42;4.30;;;0.60;;
73515;SDS011;61763;51.416;5.442;2023-07-29T13:16:07;2.55;;;0.65;;
73515;SDS011;61763;51.416;5.442;2023-07-29T13:18:33;2.20;;;0.52;;
73515;SDS011;61763;51.416;5.442;2023-07-29T13:20:58;4.32;;;1.63;;
73515;SDS011;61763;51.416;5.442;2023-07-29T13:23:25;2.72;;;1.27;;
73515;SDS011;61763;51.416;5.442;2023-07-29T13:25:51;4.00;;;1.63;;
73515;SDS011;61763;51.416;5.442;2023-07-29T13:28:17;3.13;;;1.77;;
73515;SDS011;61763;51.416;5.442;2023-07-29T13:30:42;6.68;;;2.10;;
73515;SDS011;61763;51.416;5.442;2023-07-29T13:33:08;3.17;;;2.22;;
73515;SDS011;61763;51.416;5.442;2023-07-29T13:35:34;2.78;;;0.88;;
73515;SDS011;61763;51.416;5.442;2023-07-29T13:38:00;2.45;;;1.50;;
73515;SDS011;61763;51.416;5.442;2023-07-29T13:40:25;2.35;;;1.88;;
73515;SDS011;61763;51.416;5.442;2023-07-29T13:42:51;3.22;;;0.70;;
73515;SDS011;61763;51.416;5.442;2023-07-29T13:45:17;3.60;;;0.77;;
73515;SDS011;61763;51.416;5.442;2023-07-29T13:47:44;2.25;;;1.55;;
73515;SDS011;61763;51.416;5.442;2023-07-29T13:50:09;2.22;;;0.73;;
73515;SDS011;61763;51.416;5.442;2023-07-29T13:52:36;2.17;;;0.98;;
73515;SDS011;61763;51.416;5.442;2023-07-29T13:55:04;2.33;;;0.85;;
73515;SDS011;61763;51.416;5.442;2023-07-29T13:57:30;3.85;;;2.25;;
73515;SDS011;61763;51.416;5.442;2023-07-29T13:59:56;2.85;;;1.17;;
73515;SDS011;61763;51.416;5.442;2023-07-29T14:02:22;3.15;;;2.50;;
73515;SDS011;61763;51.416;5.442;2023-07-29T14:04:47;3.55;;;2.28;;
73515;SDS011;61763;51.416;5.442;2023-07-29T14:07:12;2.65;;;1.15;;
73515;SDS011;61763;51.416;5.442;2023-07-29T14:09:38;2.67;;;2.15;;
73515;SDS011;61763;51.416;5.442;2023-07-29T14:12:04;3.22;;;0.98;;
73515;SDS011;61763;51.416;5.442;2023-07-29T14:14:29;4.40;;;2.75;;
73515;SDS011;61763;51.416;5.442;2023-07-29T14:16:55;3.10;;;0.85;;
73515;SDS011;61763;51.416;5.442;2023-07-29T14:19:21;4.78;;;1.38;;
73515;SDS011;61763;51.416;5.442;2023-07-29T14:21:46;1.98;;;1.67;;
73515;SDS011;61763;51.416;5.442;2023-07-29T14:24:11;3.15;;;1.10;;
73515;SDS011;61763;51.416;5.442;2023-07-29T14:26:37;2.65;;;0.70;;
73515;SDS011;61763;51.416;5.442;2023-07-29T14:29:02;1.92;;;1.42;;
73515;SDS011;61763;51.416;5.442;2023-07-29T14:31:27;2.92;;;2.08;;
73515;SDS011;61763;51.416;5.442;2023-07-29T14:33:53;2.53;;;1.98;;
73515;SDS011;61763;51.416;5.442;2023-07-29T14:36:18;2.97;;;1.85;;
73515;SDS011;61763;51.416;5.442;2023-07-29T14:38:43;3.30;;;1.63;;
73515;SDS011;61763;51.416;5.442;2023-07-29T14:41:09;3.25;;;2.22;;
73515;SDS011;61763;51.416;5.442;2023-07-29T14:43:34;4.18;;;3.30;;
73515;SDS011;61763;51.416;5.442;2023-07-29T14:46:00;3.85;;;2.30;;
73515;SDS011;61763;51.416;5.442;2023-07-29T14:48:26;2.75;;;1.98;;
73515;SDS011;61763;51.416;5.442;2023-07-29T14:50:51;2.50;;;2.30;;
73515;SDS011;61763;51.416;5.442;2023-07-29T14:53:17;2.47;;;0.85;;
73515;SDS011;61763;51.416;5.442;2023-07-29T14:55:43;1.67;;;0.85;;
73515;SDS011;61763;51.416;5.442;2023-07-29T14:58:08;3.08;;;0.75;;
73515;SDS011;61763;51.416;5.442;2023-07-29T15:00:33;2.83;;;2.08;;
73515;SDS011;61763;51.416;5.442;2023-07-29T15:02:59;1.98;;;1.55;;
73515;SDS011;61763;51.416;5.442;2023-07-29T15:05:24;2.05;;;0.73;;
73515;SDS011;61763;51.416;5.442;2023-07-29T15:07:50;4.13;;;2.28;;
73515;SDS011;61763;51.416;5.442;2023-07-29T15:10:15;2.35;;;0.82;;
73515;SDS011;61763;51.416;5.442;2023-07-29T15:12:41;2.63;;;1.05;;